sensor_id;sensor_type;location;lat;lon;timestamp;P1;durP1;ratioP1;P2;durP2;ratioP2
55186;SDS011;55457;52.002;5.464;2022-12-16T00:01:18;9.52;;;7.32;;
55186;SDS011;55457;52.002;5.464;2022-12-16T00:03:48;10.93;;;8.00;;
55186;SDS011;55457;52.002;5.464;2022-12-16T00:06:15;7.68;;;6.45;;
55186;SDS011;55457;52.002;5.464;2022-12-16T00:08:41;10.10;;;8.00;;
55186;SDS011;55457;52.002;5.464;2022-12-16T00:11:07;8.15;;;6.70;;
55186;SDS011;55457;52.002;5.464;2022-12-16T00:13:34;8.43;;;7.47;;
55186;SDS011;55457;52.002;5.464;2022-12-16T00:16:05;9.52;;;7.32;;
55186;SDS011;55457;52.002;5.464;2022-12-16T00:18:31;12.43;;;8.50;;
55186;SDS011;55457;52.002;5.464;2022-12-16T00:20:57;8.93;;;7.45;;
55186;SDS011;55457;52.002;5.464;2022-12-16T00:23:22;11.50;;;7.75;;
55186;SDS011;55457;52.002;5.464;2022-12-16T00:25:48;11.35;;;7.95;;
55186;SDS011;55457;52.002;5.464;2022-12-16T00:28:14;10.63;;;7.25;;
55186;SDS011;55457;52.002;5.464;2022-12-16T00:30:41;10.20;;;7.40;;
55186;SDS011;55457;52.002;5.464;2022-12-16T00:33:07;9.60;;;7.47;;
55186;SDS011;55457;52.002;5.464;2022-12-16T00:35:32;10.50;;;7.78;;
55186;SDS011;55457;52.002;5.464;2022-12-16T00:37:58;10.00;;;7.47;;
55186;SDS011;55457;52.002;5.464;2022-12-16T00:40:23;9.75;;;7.72;;
55186;SDS011;55457;52.002;5.464;2022-12-16T00:42:49;10.25;;;6.80;;
55186;SDS011;55457;52.002;5.464;2022-12-16T00:45:14;8.90;;;7.15;;
55186;SDS011;55457;52.002;5.464;2022-12-16T00:47:40;9.88;;;7.30;;
55186;SDS011;55457;52.002;5.464;2022-12-16T00:50:05;8.98;;;6.97;;
55186;SDS011;55457;52.002;5.464;2022-12-16T00:52:31;10.70;;;7.60;;
55186;SDS011;55457;52.002;5.464;2022-12-16T00:54:57;11.10;;;8.38;;
55186;SDS011;55457;52.002;5.464;2022-12-16T00:57:22;10.90;;;7.90;;
55186;SDS011;55457;52.002;5.464;2022-12-16T00:59:47;7.90;;;6.55;;
55186;SDS011;55457;52.002;5.464;2022-12-16T01:02:13;11.40;;;7.85;;
55186;SDS011;55457;52.002;5.464;2022-12-16T01:04:38;10.00;;;7.80;;
55186;SDS011;55457;52.002;5.464;2022-12-16T01:07:03;9.65;;;7.25;;
55186;SDS011;55457;52.002;5.464;2022-12-16T01:09:28;8.20;;;6.90;;
55186;SDS011;55457;52.002;5.464;2022-12-16T01:11:54;11.05;;;8.50;;
55186;SDS011;55457;52.002;5.464;2022-12-16T01:14:19;10.52;;;7.38;;
55186;SDS011;55457;52.002;5.464;2022-12-16T01:16:44;9.98;;;7.57;;
55186;SDS011;55457;52.002;5.464;2022-12-16T01:19:10;9.00;;;7.53;;
55186;SDS011;55457;52.002;5.464;2022-12-16T01:21:35;11.90;;;7.93;;
55186;SDS011;55457;52.002;5.464;2022-12-16T01:24:01;11.40;;;7.10;;
55186;SDS011;55457;52.002;5.464;2022-12-16T01:26:26;11.27;;;7.43;;
55186;SDS011;55457;52.002;5.464;2022-12-16T01:28:52;10.75;;;7.63;;
55186;SDS011;55457;52.002;5.464;2022-12-16T01:31:17;9.88;;;8.15;;
55186;SDS011;55457;52.002;5.464;2022-12-16T01:33:44;8.48;;;7.57;;
55186;SDS011;55457;52.002;5.464;2022-12-16T01:36:10;9.10;;;7.68;;
55186;SDS011;55457;52.002;5.464;2022-12-16T01:38:35;9.38;;;7.50;;
55186;SDS011;55457;52.002;5.464;2022-12-16T01:41:01;11.27;;;7.85;;
55186;SDS011;55457;52.002;5.464;2022-12-16T01:43:28;8.38;;;6.97;;
55186;SDS011;55457;52.002;5.464;2022-12-16T01:45:57;9.13;;;8.00;;
55186;SDS011;55457;52.002;5.464;2022-12-16T01:50:51;9.65;;;7.63;;
55186;SDS011;55457;52.002;5.464;2022-12-16T01:53:23;9.93;;;7.63;;
55186;SDS011;55457;52.002;5.464;2022-12-16T01:55:49;10.90;;;7.72;;
55186;SDS011;55457;52.002;5.464;2022-12-16T01:58:18;8.93;;;7.15;;
55186;SDS011;55457;52.002;5.464;2022-12-16T02:00:46;10.18;;;8.07;;
55186;SDS011;55457;52.002;5.464;2022-12-16T02:03:12;9.43;;;7.63;;
55186;SDS011;55457;52.002;5.464;2022-12-16T02:05:39;10.80;;;8.02;;
55186;SDS011;55457;52.002;5.464;2022-12-16T02:08:11;11.23;;;7.97;;
55186;SDS011;55457;52.002;5.464;2022-12-16T02:26:57;10.10;;;7.50;;
55186;SDS011;55457;52.002;5.464;2022-12-16T02:32:21;10.57;;;7.72;;
55186;SDS011;55457;52.002;5.464;2022-12-16T02:35:10;10.85;;;8.57;;
55186;SDS011;55457;52.002;5.464;2022-12-16T02:40:20;8.85;;;7.43;;
55186;SDS011;55457;52.002;5.464;2022-12-16T02:42:52;8.50;;;7.25;;
55186;SDS011;55457;52.002;5.464;2022-12-16T02:45:23;9.85;;;8.23;;
55186;SDS011;55457;52.002;5.464;2022-12-16T02:47:52;9.07;;;7.55;;
55186;SDS011;55457;52.002;5.464;2022-12-16T02:50:19;9.95;;;7.75;;
55186;SDS011;55457;52.002;5.464;2022-12-16T02:55:28;9.80;;;7.40;;
55186;SDS011;55457;52.002;5.464;2022-12-16T03:01:26;10.13;;;8.07;;
55186;SDS011;55457;52.002;5.464;2022-12-16T03:04:09;10.55;;;8.10;;
55186;SDS011;55457;52.002;5.464;2022-12-16T03:06:39;10.48;;;7.90;;
55186;SDS011;55457;52.002;5.464;2022-12-16T03:09:09;9.13;;;7.32;;
55186;SDS011;55457;52.002;5.464;2022-12-16T03:11:38;10.38;;;7.90;;
55186;SDS011;55457;52.002;5.464;2022-12-16T03:14:07;12.13;;;8.18;;
55186;SDS011;55457;52.002;5.464;2022-12-16T03:16:38;9.10;;;6.97;;
55186;SDS011;55457;52.002;5.464;2022-12-16T03:19:04;9.43;;;7.15;;
55186;SDS011;55457;52.002;5.464;2022-12-16T03:21:37;7.82;;;6.78;;
55186;SDS011;55457;52.002;5.464;2022-12-16T03:24:09;8.40;;;7.32;;
55186;SDS011;55457;52.002;5.464;2022-12-16T03:26:46;11.93;;;8.23;;
55186;SDS011;55457;52.002;5.464;2022-12-16T03:29:41;10.55;;;6.95;;
55186;SDS011;55457;52.002;5.464;2022-12-16T03:32:12;9.13;;;7.32;;
55186;SDS011;55457;52.002;5.464;2022-12-16T03:34:48;8.50;;;7.07;;
55186;SDS011;55457;52.002;5.464;2022-12-16T03:37:35;7.95;;;7.13;;
55186;SDS011;55457;52.002;5.464;2022-12-16T03:40:03;9.88;;;7.50;;
55186;SDS011;55457;52.002;5.464;2022-12-16T03:42:31;8.90;;;6.80;;
55186;SDS011;55457;52.002;5.464;2022-12-16T03:44:58;9.60;;;7.63;;
55186;SDS011;55457;52.002;5.464;2022-12-16T03:47:27;8.75;;;7.70;;
55186;SDS011;55457;52.002;5.464;2022-12-16T03:49:53;10.18;;;7.60;;
55186;SDS011;55457;52.002;5.464;2022-12-16T03:52:18;9.23;;;7.55;;
55186;SDS011;55457;52.002;5.464;2022-12-16T03:54:44;10.02;;;7.90;;
55186;SDS011;55457;52.002;5.464;2022-12-16T03:57:09;9.05;;;7.35;;
55186;SDS011;55457;52.002;5.464;2022-12-16T03:59:34;10.65;;;6.90;;
55186;SDS011;55457;52.002;5.464;2022-12-16T04:02:00;9.13;;;7.40;;
55186;SDS011;55457;52.002;5.464;2022-12-16T04:04:25;9.73;;;7.40;;
55186;SDS011;55457;52.002;5.464;2022-12-16T04:06:50;11.27;;;7.20;;
55186;SDS011;55457;52.002;5.464;2022-12-16T04:09:36;9.13;;;7.25;;
55186;SDS011;55457;52.002;5.464;2022-12-16T04:12:01;8.45;;;7.53;;
55186;SDS011;55457;52.002;5.464;2022-12-16T04:14:45;9.18;;;7.65;;
55186;SDS011;55457;52.002;5.464;2022-12-16T04:17:29;7.47;;;6.68;;
55186;SDS011;55457;52.002;5.464;2022-12-16T04:20:14;9.43;;;6.68;;
55186;SDS011;55457;52.002;5.464;2022-12-16T04:22:59;8.55;;;7.57;;
55186;SDS011;55457;52.002;5.464;2022-12-16T04:25:43;9.85;;;7.65;;
55186;SDS011;55457;52.002;5.464;2022-12-16T04:28:08;8.25;;;6.97;;
55186;SDS011;55457;52.002;5.464;2022-12-16T04:30:34;6.80;;;6.10;;
55186;SDS011;55457;52.002;5.464;2022-12-16T04:33:00;8.43;;;7.15;;
55186;SDS011;55457;52.002;5.464;2022-12-16T04:35:46;7.55;;;6.50;;
55186;SDS011;55457;52.002;5.464;2022-12-16T04:38:30;8.20;;;6.72;;
55186;SDS011;55457;52.002;5.464;2022-12-16T04:41:14;7.20;;;6.25;;
55186;SDS011;55457;52.002;5.464;2022-12-16T04:43:58;9.73;;;7.32;;
55186;SDS011;55457;52.002;5.464;2022-12-16T04:46:42;8.18;;;7.32;;
55186;SDS011;55457;52.002;5.464;2022-12-16T04:49:26;9.15;;;7.07;;
55186;SDS011;55457;52.002;5.464;2022-12-16T04:52:10;9.45;;;7.38;;
55186;SDS011;55457;52.002;5.464;2022-12-16T04:54:55;8.32;;;6.43;;
55186;SDS011;55457;52.002;5.464;2022-12-16T04:57:39;8.70;;;6.97;;
55186;SDS011;55457;52.002;5.464;2022-12-16T05:00:23;8.95;;;7.20;;
55186;SDS011;55457;52.002;5.464;2022-12-16T05:03:07;9.75;;;7.05;;
55186;SDS011;55457;52.002;5.464;2022-12-16T05:05:52;8.63;;;7.32;;
55186;SDS011;55457;52.002;5.464;2022-12-16T05:08:35;7.80;;;6.95;;
55186;SDS011;55457;52.002;5.464;2022-12-16T05:11:20;7.72;;;6.38;;
55186;SDS011;55457;52.002;5.464;2022-12-16T05:14:04;8.65;;;6.50;;
55186;SDS011;55457;52.002;5.464;2022-12-16T05:16:47;8.52;;;6.72;;
55186;SDS011;55457;52.002;5.464;2022-12-16T05:19:31;7.65;;;6.45;;
55186;SDS011;55457;52.002;5.464;2022-12-16T05:22:15;10.77;;;7.18;;
55186;SDS011;55457;52.002;5.464;2022-12-16T05:24:59;8.98;;;6.93;;
55186;SDS011;55457;52.002;5.464;2022-12-16T05:27:43;7.13;;;5.68;;
55186;SDS011;55457;52.002;5.464;2022-12-16T05:30:27;9.73;;;6.57;;
55186;SDS011;55457;52.002;5.464;2022-12-16T05:33:10;9.38;;;6.90;;
55186;SDS011;55457;52.002;5.464;2022-12-16T05:35:54;7.00;;;6.00;;
55186;SDS011;55457;52.002;5.464;2022-12-16T05:38:38;9.40;;;6.10;;
55186;SDS011;55457;52.002;5.464;2022-12-16T05:41:22;6.80;;;5.75;;
55186;SDS011;55457;52.002;5.464;2022-12-16T05:44:06;10.02;;;6.60;;
55186;SDS011;55457;52.002;5.464;2022-12-16T05:46:50;6.40;;;5.80;;
55186;SDS011;55457;52.002;5.464;2022-12-16T05:49:34;7.65;;;6.10;;
55186;SDS011;55457;52.002;5.464;2022-12-16T05:52:18;7.10;;;6.40;;
55186;SDS011;55457;52.002;5.464;2022-12-16T05:55:02;8.00;;;6.22;;
55186;SDS011;55457;52.002;5.464;2022-12-16T05:57:50;6.80;;;5.60;;
55186;SDS011;55457;52.002;5.464;2022-12-16T06:00:35;7.47;;;6.13;;
55186;SDS011;55457;52.002;5.464;2022-12-16T06:03:19;7.72;;;6.60;;
55186;SDS011;55457;52.002;5.464;2022-12-16T06:06:03;8.00;;;6.28;;
55186;SDS011;55457;52.002;5.464;2022-12-16T06:08:47;8.20;;;6.45;;
55186;SDS011;55457;52.002;5.464;2022-12-16T06:11:31;6.90;;;5.88;;
55186;SDS011;55457;52.002;5.464;2022-12-16T06:14:15;6.68;;;5.72;;
55186;SDS011;55457;52.002;5.464;2022-12-16T06:16:59;7.93;;;6.07;;
55186;SDS011;55457;52.002;5.464;2022-12-16T06:19:43;6.70;;;5.88;;
55186;SDS011;55457;52.002;5.464;2022-12-16T06:22:27;7.05;;;6.22;;
55186;SDS011;55457;52.002;5.464;2022-12-16T06:25:11;6.60;;;5.38;;
55186;SDS011;55457;52.002;5.464;2022-12-16T06:27:55;8.90;;;6.68;;
55186;SDS011;55457;52.002;5.464;2022-12-16T06:30:38;8.43;;;6.13;;
55186;SDS011;55457;52.002;5.464;2022-12-16T06:33:22;7.55;;;5.55;;
55186;SDS011;55457;52.002;5.464;2022-12-16T06:36:06;7.70;;;5.93;;
55186;SDS011;55457;52.002;5.464;2022-12-16T06:38:51;7.60;;;5.75;;
55186;SDS011;55457;52.002;5.464;2022-12-16T06:41:35;8.48;;;6.22;;
55186;SDS011;55457;52.002;5.464;2022-12-16T06:44:18;6.57;;;5.20;;
55186;SDS011;55457;52.002;5.464;2022-12-16T06:47:02;6.95;;;5.40;;
55186;SDS011;55457;52.002;5.464;2022-12-16T06:49:46;7.55;;;6.10;;
55186;SDS011;55457;52.002;5.464;2022-12-16T06:52:30;6.13;;;5.45;;
55186;SDS011;55457;52.002;5.464;2022-12-16T06:55:14;9.02;;;5.97;;
55186;SDS011;55457;52.002;5.464;2022-12-16T06:57:58;6.90;;;5.78;;
55186;SDS011;55457;52.002;5.464;2022-12-16T07:00:43;6.45;;;5.35;;
55186;SDS011;55457;52.002;5.464;2022-12-16T07:03:27;5.97;;;5.30;;
55186;SDS011;55457;52.002;5.464;2022-12-16T07:06:11;6.03;;;5.10;;
55186;SDS011;55457;52.002;5.464;2022-12-16T07:08:55;7.18;;;5.78;;
55186;SDS011;55457;52.002;5.464;2022-12-16T07:11:39;6.88;;;5.20;;
55186;SDS011;55457;52.002;5.464;2022-12-16T07:14:23;6.38;;;5.53;;
55186;SDS011;55457;52.002;5.464;2022-12-16T07:17:07;8.93;;;6.22;;
55186;SDS011;55457;52.002;5.464;2022-12-16T07:19:51;6.97;;;5.75;;
55186;SDS011;55457;52.002;5.464;2022-12-16T07:22:36;7.95;;;5.35;;
55186;SDS011;55457;52.002;5.464;2022-12-16T07:25:20;7.88;;;5.57;;
55186;SDS011;55457;52.002;5.464;2022-12-16T07:28:03;6.43;;;5.20;;
55186;SDS011;55457;52.002;5.464;2022-12-16T07:30:47;7.50;;;5.80;;
55186;SDS011;55457;52.002;5.464;2022-12-16T07:33:31;6.10;;;5.20;;
55186;SDS011;55457;52.002;5.464;2022-12-16T07:36:15;7.60;;;5.80;;
55186;SDS011;55457;52.002;5.464;2022-12-16T07:38:59;7.07;;;5.38;;
55186;SDS011;55457;52.002;5.464;2022-12-16T07:41:43;6.82;;;4.85;;
55186;SDS011;55457;52.002;5.464;2022-12-16T07:44:27;5.75;;;4.97;;
55186;SDS011;55457;52.002;5.464;2022-12-16T07:47:11;8.00;;;5.60;;
55186;SDS011;55457;52.002;5.464;2022-12-16T07:50:11;7.38;;;5.53;;
55186;SDS011;55457;52.002;5.464;2022-12-16T07:52:56;5.80;;;5.07;;
55186;SDS011;55457;52.002;5.464;2022-12-16T07:55:41;6.13;;;5.50;;
55186;SDS011;55457;52.002;5.464;2022-12-16T07:58:25;5.47;;;4.85;;
55186;SDS011;55457;52.002;5.464;2022-12-16T08:01:09;5.80;;;5.20;;
55186;SDS011;55457;52.002;5.464;2022-12-16T08:03:53;5.72;;;5.03;;
55186;SDS011;55457;52.002;5.464;2022-12-16T08:06:37;7.85;;;5.50;;
55186;SDS011;55457;52.002;5.464;2022-12-16T08:09:21;7.05;;;5.63;;
55186;SDS011;55457;52.002;5.464;2022-12-16T08:12:05;7.07;;;5.05;;
55186;SDS011;55457;52.002;5.464;2022-12-16T08:14:50;6.55;;;5.70;;
55186;SDS011;55457;52.002;5.464;2022-12-16T08:17:34;5.50;;;4.63;;
55186;SDS011;55457;52.002;5.464;2022-12-16T08:20:18;5.85;;;4.57;;
55186;SDS011;55457;52.002;5.464;2022-12-16T08:23:02;6.22;;;5.40;;
55186;SDS011;55457;52.002;5.464;2022-12-16T08:25:45;8.35;;;5.97;;
55186;SDS011;55457;52.002;5.464;2022-12-16T08:28:29;7.00;;;4.82;;
55186;SDS011;55457;52.002;5.464;2022-12-16T08:31:13;6.30;;;5.25;;
55186;SDS011;55457;52.002;5.464;2022-12-16T08:33:57;7.00;;;5.10;;
55186;SDS011;55457;52.002;5.464;2022-12-16T08:36:41;7.25;;;5.50;;
55186;SDS011;55457;52.002;5.464;2022-12-16T08:39:25;6.25;;;4.65;;
55186;SDS011;55457;52.002;5.464;2022-12-16T08:42:09;6.45;;;4.78;;
55186;SDS011;55457;52.002;5.464;2022-12-16T08:44:53;6.25;;;5.57;;
55186;SDS011;55457;52.002;5.464;2022-12-16T08:47:37;5.93;;;5.10;;
55186;SDS011;55457;52.002;5.464;2022-12-16T08:50:21;5.97;;;4.80;;
55186;SDS011;55457;52.002;5.464;2022-12-16T08:53:04;5.95;;;4.97;;
55186;SDS011;55457;52.002;5.464;2022-12-16T08:55:48;6.65;;;4.88;;
55186;SDS011;55457;52.002;5.464;2022-12-16T08:58:32;5.70;;;4.75;;
55186;SDS011;55457;52.002;5.464;2022-12-16T09:01:16;6.40;;;5.40;;
55186;SDS011;55457;52.002;5.464;2022-12-16T09:04:00;6.80;;;5.25;;
55186;SDS011;55457;52.002;5.464;2022-12-16T09:06:44;6.95;;;5.00;;
55186;SDS011;55457;52.002;5.464;2022-12-16T09:09:28;6.68;;;4.88;;
55186;SDS011;55457;52.002;5.464;2022-12-16T09:12:12;6.82;;;5.13;;
55186;SDS011;55457;52.002;5.464;2022-12-16T09:14:55;5.55;;;4.50;;
55186;SDS011;55457;52.002;5.464;2022-12-16T09:17:39;6.40;;;4.75;;
55186;SDS011;55457;52.002;5.464;2022-12-16T09:20:23;6.80;;;5.05;;
55186;SDS011;55457;52.002;5.464;2022-12-16T09:23:07;9.88;;;4.97;;
55186;SDS011;55457;52.002;5.464;2022-12-16T09:25:51;4.78;;;4.25;;
55186;SDS011;55457;52.002;5.464;2022-12-16T09:28:35;6.03;;;5.00;;
55186;SDS011;55457;52.002;5.464;2022-12-16T09:31:19;7.72;;;5.47;;
55186;SDS011;55457;52.002;5.464;2022-12-16T09:34:03;8.00;;;5.47;;
55186;SDS011;55457;52.002;5.464;2022-12-16T09:36:47;8.25;;;4.90;;
55186;SDS011;55457;52.002;5.464;2022-12-16T09:39:31;9.20;;;4.90;;
55186;SDS011;55457;52.002;5.464;2022-12-16T09:45:31;6.90;;;4.78;;
55186;SDS011;55457;52.002;5.464;2022-12-16T09:51:14;13.13;;;4.35;;
55186;SDS011;55457;52.002;5.464;2022-12-16T09:53:58;7.38;;;4.25;;
55186;SDS011;55457;52.002;5.464;2022-12-16T09:56:43;8.70;;;4.72;;
55186;SDS011;55457;52.002;5.464;2022-12-16T09:59:29;7.18;;;4.20;;
55186;SDS011;55457;52.002;5.464;2022-12-16T10:02:19;10.27;;;5.22;;
55186;SDS011;55457;52.002;5.464;2022-12-16T10:05:07;13.25;;;5.82;;
55186;SDS011;55457;52.002;5.464;2022-12-16T10:07:57;10.88;;;4.90;;
55186;SDS011;55457;52.002;5.464;2022-12-16T10:10:57;8.00;;;5.13;;
55186;SDS011;55457;52.002;5.464;2022-12-16T10:17:02;11.77;;;5.57;;
55186;SDS011;55457;52.002;5.464;2022-12-16T10:23:12;8.40;;;4.68;;
55186;SDS011;55457;52.002;5.464;2022-12-16T10:26:08;9.73;;;4.47;;
55186;SDS011;55457;52.002;5.464;2022-12-16T10:29:16;15.27;;;4.50;;
55186;SDS011;55457;52.002;5.464;2022-12-16T10:35:01;11.55;;;4.25;;
55186;SDS011;55457;52.002;5.464;2022-12-16T10:37:57;9.32;;;4.88;;
55186;SDS011;55457;52.002;5.464;2022-12-16T10:40:42;8.95;;;4.82;;
55186;SDS011;55457;52.002;5.464;2022-12-16T10:46:22;12.52;;;5.13;;
55186;SDS011;55457;52.002;5.464;2022-12-16T10:49:12;14.07;;;4.88;;
55186;SDS011;55457;52.002;5.464;2022-12-16T10:51:57;14.18;;;4.63;;
55186;SDS011;55457;52.002;5.464;2022-12-16T10:54:43;12.27;;;4.78;;
55186;SDS011;55457;52.002;5.464;2022-12-16T10:57:51;10.52;;;4.47;;
55186;SDS011;55457;52.002;5.464;2022-12-16T11:00:53;13.45;;;5.55;;
55186;SDS011;55457;52.002;5.464;2022-12-16T11:03:37;15.32;;;4.90;;
55186;SDS011;55457;52.002;5.464;2022-12-16T11:06:26;15.88;;;4.93;;
55186;SDS011;55457;52.002;5.464;2022-12-16T11:09:29;12.68;;;5.13;;
55186;SDS011;55457;52.002;5.464;2022-12-16T11:15:08;20.67;;;6.32;;
55186;SDS011;55457;52.002;5.464;2022-12-16T11:18:07;13.10;;;4.93;;
55186;SDS011;55457;52.002;5.464;2022-12-16T11:24:05;13.07;;;4.63;;
55186;SDS011;55457;52.002;5.464;2022-12-16T11:26:56;9.38;;;4.50;;
55186;SDS011;55457;52.002;5.464;2022-12-16T11:32:38;12.77;;;5.00;;
55186;SDS011;55457;52.002;5.464;2022-12-16T11:35:27;13.02;;;4.53;;
55186;SDS011;55457;52.002;5.464;2022-12-16T11:38:28;14.63;;;5.63;;
55186;SDS011;55457;52.002;5.464;2022-12-16T11:41:21;7.32;;;4.78;;
55186;SDS011;55457;52.002;5.464;2022-12-16T11:44:12;12.20;;;4.63;;
55186;SDS011;55457;52.002;5.464;2022-12-16T11:47:01;11.75;;;5.10;;
55186;SDS011;55457;52.002;5.464;2022-12-16T11:49:53;13.83;;;4.47;;
55186;SDS011;55457;52.002;5.464;2022-12-16T11:52:41;14.75;;;5.22;;
55186;SDS011;55457;52.002;5.464;2022-12-16T11:55:26;10.43;;;4.50;;
55186;SDS011;55457;52.002;5.464;2022-12-16T11:58:20;10.55;;;4.47;;
55186;SDS011;55457;52.002;5.464;2022-12-16T12:01:29;17.58;;;6.03;;
55186;SDS011;55457;52.002;5.464;2022-12-16T12:04:35;13.18;;;4.25;;
55186;SDS011;55457;52.002;5.464;2022-12-16T12:13:10;9.05;;;4.40;;
55186;SDS011;55457;52.002;5.464;2022-12-16T12:16:16;13.07;;;5.90;;
55186;SDS011;55457;52.002;5.464;2022-12-16T12:19:12;10.55;;;4.65;;
55186;SDS011;55457;52.002;5.464;2022-12-16T12:22:23;10.98;;;3.75;;
55186;SDS011;55457;52.002;5.464;2022-12-16T12:25:21;12.73;;;4.30;;
55186;SDS011;55457;52.002;5.464;2022-12-16T12:34:21;11.85;;;4.07;;
55186;SDS011;55457;52.002;5.464;2022-12-16T12:37:24;15.68;;;4.57;;
55186;SDS011;55457;52.002;5.464;2022-12-16T12:42:55;9.48;;;3.97;;
55186;SDS011;55457;52.002;5.464;2022-12-16T12:51:32;9.43;;;4.32;;
55186;SDS011;55457;52.002;5.464;2022-12-16T12:54:40;9.98;;;4.82;;
55186;SDS011;55457;52.002;5.464;2022-12-16T12:57:30;6.72;;;3.83;;
55186;SDS011;55457;52.002;5.464;2022-12-16T13:00:17;11.38;;;4.43;;
55186;SDS011;55457;52.002;5.464;2022-12-16T13:03:06;13.90;;;4.93;;
55186;SDS011;55457;52.002;5.464;2022-12-16T13:05:54;8.90;;;4.18;;
55186;SDS011;55457;52.002;5.464;2022-12-16T13:08:41;7.05;;;4.18;;
55186;SDS011;55457;52.002;5.464;2022-12-16T13:11:28;11.85;;;4.20;;
55186;SDS011;55457;52.002;5.464;2022-12-16T13:17:15;8.38;;;3.78;;
55186;SDS011;55457;52.002;5.464;2022-12-16T13:20:03;13.18;;;4.47;;
55186;SDS011;55457;52.002;5.464;2022-12-16T13:26:24;9.70;;;4.78;;
55186;SDS011;55457;52.002;5.464;2022-12-16T13:37:54;8.07;;;4.50;;
55186;SDS011;55457;52.002;5.464;2022-12-16T13:40:49;7.50;;;3.72;;
55186;SDS011;55457;52.002;5.464;2022-12-16T13:49:41;6.75;;;3.60;;
55186;SDS011;55457;52.002;5.464;2022-12-16T13:55:42;5.40;;;3.60;;
55186;SDS011;55457;52.002;5.464;2022-12-16T13:58:42;8.20;;;4.35;;
55186;SDS011;55457;52.002;5.464;2022-12-16T14:04:30;11.43;;;4.38;;
55186;SDS011;55457;52.002;5.464;2022-12-16T14:07:17;7.95;;;4.10;;
55186;SDS011;55457;52.002;5.464;2022-12-16T14:10:05;7.70;;;3.78;;
55186;SDS011;55457;52.002;5.464;2022-12-16T14:15:59;8.60;;;3.72;;
55186;SDS011;55457;52.002;5.464;2022-12-16T14:25:06;11.68;;;4.10;;
55186;SDS011;55457;52.002;5.464;2022-12-16T14:27:56;8.95;;;4.57;;
55186;SDS011;55457;52.002;5.464;2022-12-16T14:30:40;8.65;;;4.57;;
55186;SDS011;55457;52.002;5.464;2022-12-16T14:33:26;5.00;;;3.78;;
55186;SDS011;55457;52.002;5.464;2022-12-16T14:36:18;9.60;;;4.20;;
55186;SDS011;55457;52.002;5.464;2022-12-16T14:39:09;6.05;;;3.67;;
55186;SDS011;55457;52.002;5.464;2022-12-16T14:41:55;5.15;;;3.67;;
55186;SDS011;55457;52.002;5.464;2022-12-16T14:44:39;7.32;;;3.72;;
55186;SDS011;55457;52.002;5.464;2022-12-16T14:47:23;4.85;;;3.38;;
55186;SDS011;55457;52.002;5.464;2022-12-16T14:50:18;5.38;;;3.83;;
55186;SDS011;55457;52.002;5.464;2022-12-16T14:53:06;7.82;;;3.58;;
55186;SDS011;55457;52.002;5.464;2022-12-16T14:56:08;6.15;;;3.47;;
55186;SDS011;55457;52.002;5.464;2022-12-16T14:59:11;4.20;;;3.22;;
55186;SDS011;55457;52.002;5.464;2022-12-16T15:01:55;6.60;;;3.63;;
55186;SDS011;55457;52.002;5.464;2022-12-16T15:04:41;5.88;;;3.92;;
55186;SDS011;55457;52.002;5.464;2022-12-16T15:07:25;5.80;;;4.18;;
55186;SDS011;55457;52.002;5.464;2022-12-16T15:10:16;6.32;;;3.80;;
55186;SDS011;55457;52.002;5.464;2022-12-16T15:13:01;7.80;;;3.72;;
55186;SDS011;55457;52.002;5.464;2022-12-16T15:15:45;6.65;;;3.80;;
55186;SDS011;55457;52.002;5.464;2022-12-16T15:18:36;6.15;;;4.07;;
55186;SDS011;55457;52.002;5.464;2022-12-16T15:21:22;6.28;;;3.47;;
55186;SDS011;55457;52.002;5.464;2022-12-16T15:24:07;8.10;;;4.45;;
55186;SDS011;55457;52.002;5.464;2022-12-16T15:27:11;5.15;;;3.47;;
55186;SDS011;55457;52.002;5.464;2022-12-16T15:30:32;4.28;;;3.15;;
55186;SDS011;55457;52.002;5.464;2022-12-16T15:33:25;4.78;;;3.38;;
55186;SDS011;55457;52.002;5.464;2022-12-16T15:39:23;5.55;;;4.20;;
55186;SDS011;55457;52.002;5.464;2022-12-16T15:42:23;4.97;;;3.58;;
55186;SDS011;55457;52.002;5.464;2022-12-16T15:45:16;4.97;;;3.50;;
55186;SDS011;55457;52.002;5.464;2022-12-16T15:48:07;6.53;;;4.15;;
55186;SDS011;55457;52.002;5.464;2022-12-16T15:50:56;5.97;;;3.72;;
55186;SDS011;55457;52.002;5.464;2022-12-16T15:53:41;5.38;;;4.13;;
55186;SDS011;55457;52.002;5.464;2022-12-16T15:56:26;4.70;;;3.50;;
55186;SDS011;55457;52.002;5.464;2022-12-16T15:59:25;6.07;;;3.78;;
55186;SDS011;55457;52.002;5.464;2022-12-16T16:02:21;7.10;;;4.03;;
55186;SDS011;55457;52.002;5.464;2022-12-16T16:05:27;6.35;;;4.10;;
55186;SDS011;55457;52.002;5.464;2022-12-16T16:08:10;7.45;;;3.60;;
55186;SDS011;55457;52.002;5.464;2022-12-16T16:10:54;4.32;;;3.92;;
55186;SDS011;55457;52.002;5.464;2022-12-16T16:13:38;8.10;;;3.72;;
55186;SDS011;55457;52.002;5.464;2022-12-16T16:16:22;6.38;;;3.60;;
55186;SDS011;55457;52.002;5.464;2022-12-16T16:19:15;6.97;;;3.63;;
55186;SDS011;55457;52.002;5.464;2022-12-16T16:22:12;5.72;;;4.05;;
55186;SDS011;55457;52.002;5.464;2022-12-16T16:24:58;6.05;;;3.65;;
55186;SDS011;55457;52.002;5.464;2022-12-16T16:27:42;5.32;;;4.05;;
55186;SDS011;55457;52.002;5.464;2022-12-16T16:30:26;5.22;;;3.67;;
55186;SDS011;55457;52.002;5.464;2022-12-16T16:33:10;6.13;;;3.60;;
55186;SDS011;55457;52.002;5.464;2022-12-16T16:35:54;4.63;;;3.53;;
55186;SDS011;55457;52.002;5.464;2022-12-16T16:38:38;5.07;;;3.80;;
55186;SDS011;55457;52.002;5.464;2022-12-16T16:41:22;6.65;;;4.10;;
55186;SDS011;55457;52.002;5.464;2022-12-16T16:44:06;5.25;;;3.78;;
55186;SDS011;55457;52.002;5.464;2022-12-16T16:46:50;8.55;;;3.80;;
55186;SDS011;55457;52.002;5.464;2022-12-16T16:49:37;5.93;;;4.35;;
55186;SDS011;55457;52.002;5.464;2022-12-16T16:52:23;7.57;;;3.85;;
55186;SDS011;55457;52.002;5.464;2022-12-16T16:55:16;6.00;;;4.05;;
55186;SDS011;55457;52.002;5.464;2022-12-16T16:58:06;6.55;;;3.78;;
55186;SDS011;55457;52.002;5.464;2022-12-16T17:00:55;5.60;;;3.85;;
55186;SDS011;55457;52.002;5.464;2022-12-16T17:03:39;5.13;;;3.78;;
55186;SDS011;55457;52.002;5.464;2022-12-16T17:06:23;7.70;;;3.88;;
55186;SDS011;55457;52.002;5.464;2022-12-16T17:09:07;4.78;;;3.58;;
55186;SDS011;55457;52.002;5.464;2022-12-16T17:11:51;7.28;;;3.85;;
55186;SDS011;55457;52.002;5.464;2022-12-16T17:14:35;6.30;;;3.92;;
55186;SDS011;55457;52.002;5.464;2022-12-16T17:17:19;5.00;;;3.30;;
55186;SDS011;55457;52.002;5.464;2022-12-16T17:20:03;5.25;;;3.80;;
55186;SDS011;55457;52.002;5.464;2022-12-16T17:22:47;4.95;;;3.70;;
55186;SDS011;55457;52.002;5.464;2022-12-16T17:25:31;9.00;;;3.80;;
55186;SDS011;55457;52.002;5.464;2022-12-16T17:28:15;5.43;;;3.38;;
55186;SDS011;55457;52.002;5.464;2022-12-16T17:30:59;5.50;;;3.72;;
55186;SDS011;55457;52.002;5.464;2022-12-16T17:33:43;6.93;;;3.78;;
55186;SDS011;55457;52.002;5.464;2022-12-16T17:36:26;7.25;;;3.55;;
55186;SDS011;55457;52.002;5.464;2022-12-16T17:39:10;4.63;;;3.55;;
55186;SDS011;55457;52.002;5.464;2022-12-16T17:41:54;4.85;;;3.20;;
55186;SDS011;55457;52.002;5.464;2022-12-16T17:44:38;6.15;;;3.72;;
55186;SDS011;55457;52.002;5.464;2022-12-16T17:47:22;5.55;;;3.72;;
55186;SDS011;55457;52.002;5.464;2022-12-16T17:50:06;4.38;;;3.42;;
55186;SDS011;55457;52.002;5.464;2022-12-16T17:52:54;7.78;;;4.13;;
55186;SDS011;55457;52.002;5.464;2022-12-16T17:55:38;6.97;;;3.90;;
55186;SDS011;55457;52.002;5.464;2022-12-16T17:58:33;5.35;;;3.53;;
55186;SDS011;55457;52.002;5.464;2022-12-16T18:01:19;5.65;;;3.95;;
55186;SDS011;55457;52.002;5.464;2022-12-16T18:04:03;6.03;;;3.92;;
55186;SDS011;55457;52.002;5.464;2022-12-16T18:06:47;6.35;;;4.13;;
55186;SDS011;55457;52.002;5.464;2022-12-16T18:09:31;6.07;;;4.60;;
55186;SDS011;55457;52.002;5.464;2022-12-16T18:12:15;7.28;;;5.07;;
55186;SDS011;55457;52.002;5.464;2022-12-16T18:14:58;6.68;;;4.53;;